Time;durP1;ratioP1;P1;durP2;ratioP2;P2;SDS_P1;SDS_P2;PMS_P1;PMS_P2;Temp;Humidity;BMP_temperature;BMP_pressure;BME280_temperature;BME280_humidity;BME280_pressure;Samples;Min_cycle;Max_cycle;Signal;HPM_P1;HPM_P2
2023/03/01 00:01:24;;;;;;;13.10;6.30;;;0.00;91.30;;;;;;5089695;28;20123;-62
2023/03/01 00:03:51;;;;;;;12.05;5.43;;;-0.10;91.10;;;;;;5088769;28;20028;-62
2023/03/01 00:06:18;;;;;;;12.05;6.32;;;-0.10;90.90;;;;;;5085312;28;20656;-62
2023/03/01 00:08:44;;;;;;;15.23;6.07;;;-0.10;91.00;;;;;;5084082;28;20097;-62
2023/03/01 00:11:19;;;;;;;13.73;5.78;;;-0.20;91.20;;;;;;5087490;28;20032;-62
2023/03/01 00:13:46;;;;;;;11.52;5.20;;;-0.20;91.40;;;;;;5090688;28;20027;-62
2023/03/01 00:16:15;;;;;;;12.25;5.78;;;-0.30;91.50;;;;;;5088201;28;20028;-62
2023/03/01 00:18:41;;;;;;;12.80;5.60;;;-0.40;91.80;;;;;;5083326;28;20032;-62
2023/03/01 00:21:07;;;;;;;9.65;5.43;;;-0.40;92.00;;;;;;5085942;28;20055;-62
2023/03/01 00:23:37;;;;;;;12.80;6.32;;;-0.40;91.90;;;;;;5086524;28;20628;-62
2023/03/01 00:26:07;;;;;;;14.55;6.45;;;-0.40;92.00;;;;;;5087770;28;20170;-62
2023/03/01 00:28:32;;;;;;;12.35;6.25;;;-0.40;91.80;;;;;;5083005;28;20059;-62
2023/03/01 00:31:06;;;;;;;12.65;5.30;;;-0.40;92.20;;;;;;5082490;28;20064;-62
2023/03/01 00:33:32;;;;;;;10.00;6.07;;;-0.40;92.50;;;;;;5086878;28;20028;-62
2023/03/01 00:35:58;;;;;;;13.38;5.90;;;-0.50;92.40;;;;;;5089512;28;20104;-62
2023/03/01 00:38:24;;;;;;;12.20;6.10;;;-0.50;92.50;;;;;;5080279;28;20048;-62
2023/03/01 00:40:50;;;;;;;13.95;6.15;;;-0.40;92.40;;;;;;5090541;28;20036;-62
2023/03/01 00:43:16;;;;;;;16.73;6.85;;;-0.40;92.50;;;;;;5086876;28;20031;-62
2023/03/01 00:45:41;;;;;;;15.95;6.55;;;-0.40;92.80;;;;;;5087628;28;20089;-62
2023/03/01 00:48:07;;;;;;;14.00;6.20;;;-0.40;92.50;;;;;;5088881;28;20589;-61
2023/03/01 00:50:33;;;;;;;13.95;6.88;;;-0.40;92.40;;;;;;5083475;28;20134;-62
2023/03/01 00:52:58;;;;;;;13.93;6.45;;;-0.40;92.50;;;;;;5088918;28;20036;-62
2023/03/01 00:55:25;;;;;;;13.95;6.60;;;-0.40;92.40;;;;;;5089795;28;20031;-62
2023/03/01 00:57:51;;;;;;;11.52;5.80;;;-0.40;92.40;;;;;;5086309;28;20043;-62
2023/03/01 01:00:18;;;;;;;10.68;5.85;;;-0.40;92.60;;;;;;5089903;28;20031;-62
2023/03/01 01:02:44;;;;;;;14.35;6.95;;;-0.40;92.60;;;;;;5086757;28;20032;-62
2023/03/01 01:05:10;;;;;;;12.90;5.30;;;-0.50;92.40;;;;;;5092612;28;20027;-62
2023/03/01 01:07:36;;;;;;;12.80;6.85;;;-0.50;92.20;;;;;;5087628;28;20028;-62
2023/03/01 01:10:04;;;;;;;11.20;6.88;;;-0.50;92.10;;;;;;5086799;28;20031;-62
2023/03/01 01:12:30;;;;;;;16.17;7.35;;;-0.50;91.80;;;;;;5092733;28;20114;-62
2023/03/01 01:14:56;;;;;;;16.60;7.18;;;-0.50;91.60;;;;;;5090780;28;20389;-62
2023/03/01 01:17:21;;;;;;;10.63;5.43;;;-0.60;91.70;;;;;;5085403;28;20075;-61
2023/03/01 01:19:48;;;;;;;14.13;5.93;;;-0.60;92.00;;;;;;5085138;28;20038;-62
2023/03/01 01:22:13;;;;;;;12.20;6.40;;;-0.70;92.30;;;;;;5092671;28;20303;-64
2023/03/01 01:24:39;;;;;;;10.60;5.38;;;-0.70;92.60;;;;;;5103189;28;20027;-64
2023/03/01 01:27:07;;;;;;;10.30;6.45;;;-0.80;92.90;;;;;;5101949;28;20050;-63
2023/03/01 01:29:33;;;;;;;14.07;6.13;;;-0.80;93.40;;;;;;5089099;28;20135;-62
2023/03/01 01:31:59;;;;;;;14.82;6.57;;;-0.80;93.50;;;;;;5094602;28;20028;-62
2023/03/01 01:34:24;;;;;;;10.98;6.00;;;-0.80;93.50;;;;;;5087684;28;20027;-63
2023/03/01 01:36:55;;;;;;;10.50;5.40;;;-0.80;93.20;;;;;;5089124;28;20934;-62
2023/03/01 01:39:22;;;;;;;13.65;6.65;;;-0.80;93.10;;;;;;5093801;28;20023;-62
2023/03/01 01:41:48;;;;;;;14.60;6.47;;;-0.80;92.90;;;;;;5085937;28;20094;-62
2023/03/01 01:44:20;;;;;;;11.80;5.93;;;-0.80;92.90;;;;;;5087830;28;20038;-62
2023/03/01 01:46:58;;;;;;;14.00;6.43;;;-0.90;92.90;;;;;;5085273;28;20060;-62
2023/03/01 01:49:39;;;;;;;15.90;7.03;;;-0.90;92.70;;;;;;5085645;28;20213;-61
2023/03/01 01:52:05;;;;;;;21.25;7.90;;;-0.90;92.50;;;;;;5090534;28;20035;-62
2023/03/01 01:55:03;;;;;;;13.85;6.68;;;-0.90;92.10;;;;;;5081769;28;20063;-65
2023/03/01 01:57:46;;;;;;;16.88;8.18;;;-0.90;92.20;;;;;;5084563;28;21419;-62
2023/03/01 02:00:14;;;;;;;14.80;6.80;;;-1.00;92.20;;;;;;5084442;28;20032;-62
2023/03/01 02:02:42;;;;;;;15.25;6.78;;;-1.00;91.80;;;;;;5090142;28;20036;-63
2023/03/01 02:05:25;;;;;;;17.45;8.00;;;-1.10;91.80;;;;;;5092591;28;20072;-61
2023/03/01 02:07:52;;;;;;;17.73;7.88;;;-1.10;91.60;;;;;;5091964;28;20040;-62
2023/03/01 02:10:22;;;;;;;14.07;7.18;;;-1.20;91.70;;;;;;5093649;28;20487;-62
2023/03/01 02:12:49;;;;;;;14.55;6.97;;;-1.20;92.20;;;;;;5083019;28;20059;-62
2023/03/01 02:15:15;;;;;;;15.57;7.25;;;-1.20;92.50;;;;;;5086344;28;20046;-61
2023/03/01 02:17:41;;;;;;;22.55;8.90;;;-1.20;93.30;;;;;;5090568;28;20028;-63
2023/03/01 02:20:30;;;;;;;19.90;8.40;;;-1.20;93.90;;;;;;5087516;28;20485;-61
2023/03/01 02:22:57;;;;;;;19.90;8.07;;;-1.10;94.70;;;;;;5085575;28;20831;-61
2023/03/01 02:25:49;;;;;;;19.83;10.00;;;-1.10;95.50;;;;;;5082359;28;20028;-62
2023/03/01 02:28:17;;;;;;;19.83;9.23;;;-1.10;96.20;;;;;;5085969;28;20772;-62
2023/03/01 02:33:32;;;;;;;19.10;8.43;;;-1.00;96.70;;;;;;5086399;28;20598;-62
2023/03/01 02:36:01;;;;;;;17.52;8.10;;;-0.90;96.90;;;;;;5080167;28;20023;-62
2023/03/01 02:38:28;;;;;;;19.25;8.48;;;-0.90;96.90;;;;;;5083030;28;20826;-62
2023/03/01 02:40:56;;;;;;;15.80;8.05;;;-0.80;96.00;;;;;;5082593;28;20879;-62
2023/03/01 02:43:27;;;;;;;17.70;7.57;;;-0.80;94.10;;;;;;5086651;28;20036;-62
2023/03/01 02:45:56;;;;;;;15.18;7.60;;;-0.90;94.00;;;;;;5081670;28;20046;-61
2023/03/01 02:48:22;;;;;;;15.82;7.47;;;-0.90;94.30;;;;;;5083357;28;20044;-62
2023/03/01 02:51:03;;;;;;;13.25;7.25;;;-1.00;94.80;;;;;;5083533;28;20035;-62
2023/03/01 02:53:45;;;;;;;17.13;7.63;;;-1.00;95.10;;;;;;5080877;28;20231;-62
2023/03/01 02:56:12;;;;;;;14.75;7.63;;;-1.10;95.20;;;;;;5084600;28;20031;-62
2023/03/01 02:58:45;;;;;;;13.85;7.45;;;-1.00;94.80;;;;;;5079616;28;20024;-62
2023/03/01 03:01:14;;;;;;;16.05;6.90;;;-1.10;94.50;;;;;;5083725;28;20103;-62
2023/03/01 03:03:41;;;;;;;12.65;6.32;;;-1.10;94.10;;;;;;5078984;28;20020;-62
2023/03/01 03:06:09;;;;;;;15.10;7.40;;;-1.10;94.00;;;;;;5087659;28;20046;-61
2023/03/01 03:08:35;;;;;;;15.43;7.15;;;-1.20;94.20;;;;;;5080641;28;20024;-61
2023/03/01 03:11:01;;;;;;;16.35;6.70;;;-1.20;94.40;;;;;;5088421;28;20164;-62
2023/03/01 03:13:28;;;;;;;14.88;7.28;;;-1.20;94.20;;;;;;5082661;28;20035;-62
2023/03/01 03:15:57;;;;;;;15.98;6.72;;;-1.30;94.20;;;;;;5079811;28;20157;-62
2023/03/01 03:18:25;;;;;;;15.93;7.45;;;-1.30;94.20;;;;;;5076535;28;20034;-59
2023/03/01 03:20:52;;;;;;;15.02;6.90;;;-1.30;94.20;;;;;;5080742;28;20325;-62
2023/03/01 03:23:19;;;;;;;16.23;7.22;;;-1.30;94.10;;;;;;5089269;28;20042;-61
2023/03/01 03:25:49;;;;;;;11.55;6.68;;;-1.30;94.10;;;;;;5082396;28;20060;-62
2023/03/01 03:28:15;;;;;;;14.85;6.22;;;-1.30;94.30;;;;;;5093694;28;20693;-62
2023/03/01 03:30:42;;;;;;;20.95;9.55;;;-1.30;94.60;;;;;;5094338;28;20031;-63
2023/03/01 03:33:09;;;;;;;15.32;7.55;;;-1.30;95.10;;;;;;5087954;28;20054;-63
2023/03/01 03:35:46;;;;;;;15.43;8.40;;;-1.30;95.60;;;;;;5085359;28;20031;-62
2023/03/01 03:38:16;;;;;;;15.73;7.57;;;-1.20;95.60;;;;;;5086227;28;20120;-62
2023/03/01 03:40:46;;;;;;;17.20;7.30;;;-1.20;95.20;;;;;;5091702;28;20052;-62
2023/03/01 03:43:18;;;;;;;15.18;6.88;;;-1.20;94.80;;;;;;5088601;28;20036;-62
2023/03/01 03:45:46;;;;;;;14.52;7.60;;;-1.20;94.40;;;;;;5087924;28;20089;-62
2023/03/01 03:48:12;;;;;;;13.77;6.53;;;-1.30;94.10;;;;;;5081846;28;20035;-62
2023/03/01 03:50:39;;;;;;;15.82;6.68;;;-1.30;94.10;;;;;;5083495;28;20757;-61
2023/03/01 03:53:12;;;;;;;13.55;7.07;;;-1.30;93.80;;;;;;5085910;28;20040;-62
2023/03/01 03:55:40;;;;;;;12.30;6.47;;;-1.40;93.80;;;;;;5083910;28;20032;-62
2023/03/01 03:58:09;;;;;;;16.23;7.82;;;-1.30;93.70;;;;;;5086229;28;20124;-61
2023/03/01 04:00:36;;;;;;;15.23;7.03;;;-1.40;93.80;;;;;;5089067;28;20036;-62
2023/03/01 04:03:02;;;;;;;15.27;7.60;;;-1.50;94.10;;;;;;5085871;28;20043;-62
2023/03/01 04:05:28;;;;;;;13.10;6.82;;;-1.60;94.40;;;;;;5086594;28;20027;-62
2023/03/01 04:08:06;;;;;;;14.00;7.40;;;-1.50;94.40;;;;;;5089976;28;20051;-62
2023/03/01 04:10:37;;;;;;;14.52;7.05;;;-1.50;94.20;;;;;;5088211;28;20040;-62
2023/03/01 04:13:04;;;;;;;16.15;7.45;;;-1.60;94.10;;;;;;5085596;28;20059;-62
2023/03/01 04:15:32;;;;;;;12.73;7.22;;;-1.50;94.40;;;;;;5091085;28;20178;-61
2023/03/01 04:17:59;;;;;;;14.30;7.60;;;-1.50;94.40;;;;;;5090539;28;20082;-62
2023/03/01 04:20:28;;;;;;;12.90;7.38;;;-1.50;94.60;;;;;;5085836;28;20105;-62
2023/03/01 04:22:59;;;;;;;16.88;8.48;;;-1.40;94.60;;;;;;5092373;28;20026;-62
2023/03/01 04:25:26;;;;;;;18.15;8.48;;;-1.40;94.90;;;;;;5089340;28;20039;-62
2023/03/01 04:27:51;;;;;;;24.15;9.80;;;-1.40;95.30;;;;;;5086865;28;20059;-62
2023/03/01 04:30:17;;;;;;;18.58;9.68;;;-1.30;95.70;;;;;;5082266;28;20119;-62
2023/03/01 04:32:43;;;;;;;18.27;9.85;;;-1.30;96.20;;;;;;5092529;28;20497;-62
2023/03/01 04:35:09;;;;;;;18.23;8.82;;;-1.10;96.70;;;;;;5088950;28;20028;-62
2023/03/01 04:37:35;;;;;;;18.63;9.35;;;-1.10;97.00;;;;;;5090440;28;20034;-62
2023/03/01 04:40:12;;;;;;;18.65;9.57;;;-1.10;97.30;;;;;;5094922;28;20387;-62
2023/03/01 04:42:38;;;;;;;15.55;8.40;;;-1.10;97.50;;;;;;5088176;28;20028;-61
2023/03/01 04:45:12;;;;;;;17.08;9.60;;;-1.10;97.40;;;;;;5086351;28;20027;-61
2023/03/01 04:47:44;;;;;;;19.90;9.60;;;-1.10;97.60;;;;;;5089463;28;20114;-62
2023/03/01 04:50:11;;;;;;;16.83;9.70;;;-1.00;97.70;;;;;;5087310;28;20028;-62
2023/03/01 04:52:37;;;;;;;19.23;9.65;;;-1.00;97.90;;;;;;5093291;28;20042;-62
2023/03/01 04:55:04;;;;;;;14.32;8.25;;;-0.90;98.00;;;;;;5095176;28;20075;-62
2023/03/01 04:57:30;;;;;;;16.17;8.43;;;-0.90;97.80;;;;;;5088799;28;20040;-61
2023/03/01 04:59:56;;;;;;;11.63;6.70;;;-0.90;97.60;;;;;;5082364;28;20038;-62
2023/03/01 05:02:22;;;;;;;15.15;7.43;;;-1.00;96.90;;;;;;5087223;28;20032;-62
2023/03/01 05:04:48;;;;;;;16.30;9.10;;;-1.00;96.80;;;;;;5081125;28;20020;-62
2023/03/01 05:07:19;;;;;;;15.70;8.40;;;-1.00;97.00;;;;;;5082450;28;20023;-62
2023/03/01 05:09:48;;;;;;;15.13;7.53;;;-0.90;97.10;;;;;;5078414;28;20053;-62
2023/03/01 05:12:14;;;;;;;11.48;7.10;;;-0.90;96.80;;;;;;5087549;28;20036;-62
2023/03/01 05:14:41;;;;;;;15.43;7.03;;;-0.90;95.90;;;;;;5080457;28;20056;-61
2023/03/01 05:17:07;;;;;;;16.55;6.75;;;-1.00;94.60;;;;;;5093097;28;20489;-61
2023/03/01 05:19:33;;;;;;;10.90;6.15;;;-1.10;94.20;;;;;;5088329;28;20035;-62
2023/03/01 05:22:03;;;;;;;10.93;6.40;;;-1.20;93.60;;;;;;5085915;28;20527;-62
2023/03/01 05:24:31;;;;;;;18.00;6.88;;;-1.30;93.80;;;;;;5083589;28;20020;-62
2023/03/01 05:26:58;;;;;;;10.95;7.45;;;-1.40;94.50;;;;;;5080711;28;20051;-62
2023/03/01 05:29:26;;;;;;;12.75;7.03;;;-1.40;95.10;;;;;;5086599;28;20036;-62
2023/03/01 05:31:57;;;;;;;13.73;7.00;;;-1.40;95.20;;;;;;5092863;28;20044;-63
2023/03/01 05:34:31;;;;;;;14.43;7.50;;;-1.40;95.10;;;;;;5086518;28;20032;-62
2023/03/01 05:36:57;;;;;;;12.98;7.47;;;-1.40;95.20;;;;;;5085761;28;20028;-63
2023/03/01 05:39:26;;;;;;;12.27;6.75;;;-1.40;95.20;;;;;;5092501;28;20038;-62
2023/03/01 05:41:57;;;;;;;15.80;7.53;;;-1.40;95.00;;;;;;5091221;28;20043;-61
2023/03/01 05:44:23;;;;;;;13.73;6.40;;;-1.40;94.20;;;;;;5092401;28;20028;-61
2023/03/01 05:46:49;;;;;;;12.18;6.80;;;-1.50;94.00;;;;;;5086512;28;20044;-61
2023/03/01 05:49:15;;;;;;;12.35;6.47;;;-1.60;94.20;;;;;;5088910;28;20140;-61
2023/03/01 05:51:43;;;;;;;15.68;6.95;;;-1.60;94.40;;;;;;5087359;28;20048;-62
2023/03/01 05:54:09;;;;;;;14.88;6.53;;;-1.60;94.20;;;;;;5085799;28;20031;-63
2023/03/01 05:56:36;;;;;;;14.23;6.53;;;-1.60;94.20;;;;;;5087770;28;20039;-62
2023/03/01 05:59:04;;;;;;;13.07;6.10;;;-1.70;94.10;;;;;;5092022;28;20032;-62
2023/03/01 06:01:31;;;;;;;13.95;6.40;;;-1.70;94.10;;;;;;5084484;28;20087;-62
2023/03/01 06:03:57;;;;;;;13.73;6.32;;;-1.70;94.00;;;;;;5086633;28;20024;-62
2023/03/01 06:06:24;;;;;;;14.35;7.60;;;-1.70;93.50;;;;;;5083242;28;20031;-63
2023/03/01 06:08:50;;;;;;;15.32;6.57;;;-1.70;93.40;;;;;;5085062;28;20077;-63
2023/03/01 06:11:16;;;;;;;13.50;6.80;;;-1.70;93.30;;;;;;5082138;28;20080;-61
2023/03/01 06:13:43;;;;;;;13.55;6.70;;;-1.70;93.30;;;;;;5079917;28;20036;-62
2023/03/01 06:16:09;;;;;;;14.85;7.15;;;-1.70;93.30;;;;;;5080395;28;20035;-62
2023/03/01 06:18:37;;;;;;;12.65;6.97;;;-1.70;93.20;;;;;;5089409;28;20024;-62
2023/03/01 06:21:03;;;;;;;14.57;7.18;;;-1.70;93.00;;;;;;5080670;28;20468;-61
2023/03/01 06:23:30;;;;;;;11.35;6.25;;;-1.80;93.10;;;;;;5081807;28;20039;-60
2023/03/01 06:25:55;;;;;;;14.93;6.38;;;-1.70;92.90;;;;;;5085745;28;20032;-64
2023/03/01 06:28:21;;;;;;;12.80;7.45;;;-1.70;92.90;;;;;;5082930;28;20843;-61
2023/03/01 06:30:49;;;;;;;14.68;6.30;;;-1.70;93.00;;;;;;5078851;28;20032;-61
2023/03/01 06:33:15;;;;;;;15.32;6.95;;;-1.70;93.30;;;;;;5082996;28;20035;-61
2023/03/01 06:35:40;;;;;;;13.85;7.20;;;-1.70;93.40;;;;;;5078727;28;20035;-61
2023/03/01 06:38:06;;;;;;;17.10;8.02;;;-1.70;93.80;;;;;;5080027;28;20093;-61
2023/03/01 06:40:35;;;;;;;16.92;7.50;;;-1.70;94.20;;;;;;5034111;28;20130;-59
2023/03/01 06:43:01;;;;;;;15.52;8.02;;;-1.60;94.50;;;;;;5036651;28;20401;-61
2023/03/01 06:45:27;;;;;;;10.77;6.47;;;-1.50;94.60;;;;;;5043011;28;20042;-60
2023/03/01 06:47:52;;;;;;;16.13;7.35;;;-1.50;94.70;;;;;;5040162;28;20803;-62
2023/03/01 06:50:19;;;;;;;21.95;8.98;;;-1.40;94.90;;;;;;5045189;28;20596;-61
2023/03/01 06:52:45;;;;;;;20.05;8.57;;;-1.40;94.70;;;;;;5041845;28;20036;-60
2023/03/01 06:55:12;;;;;;;19.65;7.95;;;-1.40;95.00;;;;;;5040154;28;20044;-61
2023/03/01 06:57:38;;;;;;;20.58;8.75;;;-1.30;95.40;;;;;;5036197;28;20040;-61
2023/03/01 07:00:05;;;;;;;16.70;7.97;;;-1.30;95.90;;;;;;5034613;28;20037;-61
2023/03/01 07:02:31;;;;;;;18.42;8.20;;;-1.20;96.10;;;;;;5037707;28;20040;-61
2023/03/01 07:04:57;;;;;;;17.50;7.80;;;-1.10;96.30;;;;;;5038285;28;20025;-60
2023/03/01 07:07:22;;;;;;;19.70;7.80;;;-1.00;96.40;;;;;;5039476;28;20028;-61
2023/03/01 07:09:49;;;;;;;18.95;8.38;;;-0.90;96.40;;;;;;5043473;28;20542;-61
2023/03/01 07:12:15;;;;;;;18.23;9.20;;;-0.80;96.40;;;;;;5033818;28;20087;-61
2023/03/01 07:14:41;;;;;;;18.75;8.43;;;-0.70;96.50;;;;;;5036839;28;20032;-61
2023/03/01 07:17:07;;;;;;;19.10;8.40;;;-0.60;96.60;;;;;;5041074;28;20033;-61
2023/03/01 07:19:32;;;;;;;14.95;7.65;;;-0.50;96.80;;;;;;5038655;28;20029;-60
2023/03/01 07:21:58;;;;;;;19.65;8.55;;;-0.40;97.00;;;;;;5038642;28;20032;-61
2023/03/01 07:24:24;;;;;;;17.42;9.57;;;-0.30;97.00;;;;;;5044331;28;20039;-61
2023/03/01 07:26:51;;;;;;;17.30;8.90;;;-0.20;97.00;;;;;;5037395;28;20075;-61
2023/03/01 07:29:17;;;;;;;19.15;8.70;;;-0.10;96.90;;;;;;5033888;28;20036;-62
2023/03/01 07:31:44;;;;;;;16.35;8.00;;;0.00;96.70;;;;;;5035249;28;20226;-63
2023/03/01 07:34:10;;;;;;;26.67;9.75;;;0.10;96.70;;;;;;5040758;28;20503;-60
2023/03/01 07:36:36;;;;;;;19.77;9.65;;;0.20;96.90;;;;;;5044384;28;20033;-62
2023/03/01 07:39:03;;;;;;;18.38;9.70;;;0.30;97.00;;;;;;5046585;28;20057;-61
2023/03/01 07:41:29;;;;;;;23.83;10.43;;;0.40;97.00;;;;;;5049248;28;20036;-61
2023/03/01 07:43:55;;;;;;;16.58;8.80;;;0.50;96.90;;;;;;5037967;28;20033;-61
2023/03/01 07:46:21;;;;;;;18.60;9.45;;;0.60;96.90;;;;;;5046259;28;20044;-61
2023/03/01 07:48:47;;;;;;;18.17;9.82;;;0.70;96.90;;;;;;5036536;28;20036;-61
2023/03/01 07:51:13;;;;;;;17.75;9.82;;;0.80;97.00;;;;;;5039781;28;20057;-61
2023/03/01 07:53:38;;;;;;;15.27;9.27;;;0.90;96.90;;;;;;5043774;28;20052;-63
2023/03/01 07:56:07;;;;;;;14.95;8.10;;;1.10;96.60;;;;;;5047387;28;20037;-64
2023/03/01 07:58:41;;;;;;;17.65;8.68;;;1.50;97.50;;;;;;5041363;28;20948;-63
2023/03/01 08:01:14;;;;;;;17.85;8.32;;;2.20;97.50;;;;;;5039132;28;20033;-63
2023/03/01 08:03:40;;;;;;;17.20;8.60;;;3.00;95.00;;;;;;5042605;28;20040;-61
2023/03/01 08:06:08;;;;;;;21.67;8.13;;;3.90;92.20;;;;;;5046596;28;20033;-60
2023/03/01 08:08:34;;;;;;;14.93;7.90;;;4.80;90.70;;;;;;5047077;28;20055;-60
2023/03/01 08:11:01;;;;;;;13.02;6.97;;;5.50;84.70;;;;;;5042069;28;20029;-61
2023/03/01 08:13:27;;;;;;;12.70;6.65;;;5.80;82.20;;;;;;5046129;28;20119;-61
2023/03/01 08:15:53;;;;;;;12.30;7.55;;;6.00;79.80;;;;;;5040454;28;20045;-60
2023/03/01 08:18:20;;;;;;;19.27;7.65;;;6.00;74.90;;;;;;5038898;28;20032;-61
2023/03/01 08:20:46;;;;;;;21.55;7.97;;;5.90;73.40;;;;;;5044875;28;20029;-61
2023/03/01 08:23:12;;;;;;;19.60;6.65;;;5.80;75.40;;;;;;5042038;28;20041;-59
2023/03/01 08:25:38;;;;;;;15.07;7.47;;;5.80;75.00;;;;;;5039543;28;20029;-60
2023/03/01 08:28:05;;;;;;;14.85;7.15;;;5.90;75.50;;;;;;5046107;28;20033;-60
2023/03/01 08:30:31;;;;;;;15.63;7.95;;;5.90;75.70;;;;;;5040088;28;20043;-59
2023/03/01 08:32:57;;;;;;;13.25;7.28;;;5.90;75.80;;;;;;5046658;28;20907;-60
2023/03/01 08:35:23;;;;;;;13.00;7.75;;;5.90;76.50;;;;;;5046924;28;20120;-59
2023/03/01 08:37:49;;;;;;;16.08;7.82;;;5.80;77.00;;;;;;5043129;28;20037;-60
2023/03/01 08:40:15;;;;;;;13.55;7.88;;;5.90;76.50;;;;;;5041988;28;20025;-59
2023/03/01 08:42:42;;;;;;;15.52;7.40;;;5.90;75.50;;;;;;5040723;28;20084;-59
2023/03/01 08:45:09;;;;;;;15.80;7.78;;;5.90;76.10;;;;;;5044252;28;20056;-60
2023/03/01 08:47:35;;;;;;;16.45;7.57;;;5.90;76.70;;;;;;5042647;28;20372;-59
2023/03/01 08:50:02;;;;;;;16.00;8.07;;;5.80;77.00;;;;;;5046500;28;20036;-59
2023/03/01 08:52:29;;;;;;;13.77;7.80;;;5.80;77.60;;;;;;5040676;28;20037;-60
2023/03/01 08:54:56;;;;;;;15.93;7.55;;;5.70;77.40;;;;;;5039032;28;20083;-60
2023/03/01 08:57:22;;;;;;;17.02;7.97;;;5.70;77.40;;;;;;5040519;28;20037;-60
2023/03/01 08:59:48;;;;;;;13.85;8.07;;;5.80;77.40;;;;;;5041993;28;20651;-60
2023/03/01 09:02:16;;;;;;;16.02;7.32;;;5.90;77.30;;;;;;5039635;28;20022;-60
2023/03/01 09:04:42;;;;;;;15.02;8.50;;;6.00;76.90;;;;;;5040235;28;20021;-60
2023/03/01 09:07:09;;;;;;;18.38;7.78;;;6.10;77.00;;;;;;5044722;28;20385;-59
2023/03/01 09:09:35;;;;;;;16.83;7.88;;;6.10;77.10;;;;;;5042921;28;20081;-60
2023/03/01 09:12:01;;;;;;;11.70;7.50;;;6.20;76.30;;;;;;5035340;28;20065;-59
2023/03/01 09:14:27;;;;;;;16.58;7.38;;;6.80;74.30;;;;;;5044826;28;20037;-60
2023/03/01 09:16:53;;;;;;;13.15;7.13;;;7.70;71.20;;;;;;5042898;28;20037;-60
2023/03/01 09:19:19;;;;;;;11.27;6.13;;;8.40;67.80;;;;;;5046031;28;20043;-59
2023/03/01 09:21:51;;;;;;;12.02;6.55;;;9.00;65.80;;;;;;5043626;28;20032;-60
2023/03/01 09:24:20;;;;;;;12.05;6.55;;;9.70;62.70;;;;;;5045850;28;20052;-60
2023/03/01 09:26:46;;;;;;;10.27;6.30;;;10.80;59.50;;;;;;5043025;28;20029;-58
2023/03/01 09:29:12;;;;;;;11.98;6.88;;;11.80;55.80;;;;;;5046996;28;20032;-59
2023/03/01 09:31:39;;;;;;;12.40;6.22;;;12.50;52.40;;;;;;5046566;28;20483;-58
2023/03/01 09:34:05;;;;;;;15.65;7.25;;;12.90;51.00;;;;;;5043893;28;20087;-60
2023/03/01 09:36:30;;;;;;;13.98;5.70;;;12.80;51.70;;;;;;5048836;28;20045;-59
2023/03/01 09:38:58;;;;;;;9.50;5.40;;;12.20;50.80;;;;;;5041273;28;20112;-58
2023/03/01 09:41:46;;;;;;;9.20;4.25;;;11.30;49.60;;;;;;5043784;28;20071;-62
2023/03/01 09:44:50;;;;;;;9.18;4.82;;;10.50;51.80;;;;;;5049032;28;20024;-61
2023/03/01 09:47:31;;;;;;;9.05;5.32;;;10.10;53.30;;;;;;5046005;28;20036;-63
2023/03/01 09:50:20;;;;;;;9.52;5.05;;;10.30;54.30;;;;;;5035839;28;20044;-62
2023/03/01 09:53:16;;;;;;;12.85;9.07;;;11.10;52.60;;;;;;5040478;28;20131;-61
2023/03/01 09:55:45;;;;;;;9.05;6.20;;;12.00;49.10;;;;;;5047896;28;20044;-61
2023/03/01 09:58:23;;;;;;;12.80;7.30;;;12.80;48.00;;;;;;5034328;28;20037;-61
2023/03/01 10:00:50;;;;;;;17.65;10.93;;;13.00;47.30;;;;;;5036111;28;20041;-61
2023/03/01 10:03:25;;;;;;;13.18;9.40;;;13.40;47.10;;;;;;5045251;28;20036;-61
2023/03/01 10:06:01;;;;;;;8.27;4.63;;;13.30;47.10;;;;;;5036457;28;20909;-60
2023/03/01 10:08:35;;;;;;;11.55;6.80;;;13.50;45.80;;;;;;5046090;28;20097;-60
2023/03/01 10:11:03;;;;;;;8.85;6.00;;;14.10;46.00;;;;;;5048833;28;20296;-59
2023/03/01 10:13:45;;;;;;;8.77;5.30;;;14.50;43.90;;;;;;5032980;28;20033;-60
2023/03/01 10:16:20;;;;;;;7.80;3.92;;;14.70;43.30;;;;;;5043322;28;20039;-62
2023/03/01 10:18:52;;;;;;;12.55;6.97;;;15.00;41.70;;;;;;5037594;28;20139;-60
2023/03/01 10:21:20;;;;;;;10.35;4.97;;;15.60;39.90;;;;;;5038448;28;20051;-60
2023/03/01 10:23:49;;;;;;;8.40;3.78;;;16.00;40.30;;;;;;5046682;28;20035;-61
2023/03/01 10:26:45;;;;;;;9.77;5.28;;;16.30;38.40;;;;;;5039306;28;20036;-61
2023/03/01 10:29:12;;;;;;;6.38;3.13;;;17.20;38.30;;;;;;5040716;28;20025;-59
2023/03/01 10:31:48;;;;;;;7.32;3.13;;;18.00;36.00;;;;;;5039061;28;20029;-60
2023/03/01 10:34:17;;;;;;;7.82;3.70;;;18.70;35.10;;;;;;5044780;28;20021;-60
2023/03/01 10:36:47;;;;;;;5.00;3.35;;;19.20;32.60;;;;;;5045148;28;20048;-60
2023/03/01 10:39:21;;;;;;;4.38;3.20;;;19.40;33.10;;;;;;5043579;28;20032;-61
2023/03/01 10:42:03;;;;;;;4.40;3.20;;;19.80;32.50;;;;;;5049515;28;20091;-60
2023/03/01 10:44:47;;;;;;;4.53;3.00;;;20.00;33.40;;;;;;5038253;28;20033;-60
2023/03/01 10:47:24;;;;;;;6.07;3.22;;;20.60;32.90;;;;;;5040223;28;20044;-60
2023/03/01 10:49:53;;;;;;;5.65;3.58;;;21.00;31.80;;;;;;5041408;28;20095;-60
2023/03/01 10:52:22;;;;;;;4.65;3.08;;;21.30;31.40;;;;;;5036855;28;20035;-59
2023/03/01 10:54:57;;;;;;;4.95;2.90;;;21.30;29.00;;;;;;5035644;28;20044;-60
2023/03/01 10:57:43;;;;;;;5.78;4.00;;;21.20;30.30;;;;;;5040034;28;20090;-60
2023/03/01 11:00:20;;;;;;;8.75;4.47;;;21.60;31.30;;;;;;5036195;28;20045;-60
2023/03/01 11:02:51;;;;;;;4.78;3.60;;;22.10;30.50;;;;;;5033486;28;20049;-60
2023/03/01 11:05:20;;;;;;;6.30;3.45;;;22.20;29.10;;;;;;5037697;28;20598;-58
2023/03/01 11:07:51;;;;;;;8.48;3.67;;;22.30;29.60;;;;;;5034283;28;20110;-61
2023/03/01 11:10:24;;;;;;;6.75;3.83;;;22.40;28.50;;;;;;5036321;28;20046;-60
2023/03/01 11:13:05;;;;;;;6.22;3.42;;;22.60;27.80;;;;;;5036863;28;20087;-60
2023/03/01 11:15:30;;;;;;;5.45;3.25;;;22.70;27.30;;;;;;5033348;28;20088;-60
2023/03/01 11:17:57;;;;;;;7.95;3.50;;;22.40;27.90;;;;;;5035571;28;20068;-60
2023/03/01 11:20:34;;;;;;;7.03;3.10;;;21.70;28.30;;;;;;5036022;28;20040;-60
2023/03/01 11:23:06;;;;;;;6.18;3.58;;;21.70;28.40;;;;;;5035857;28;20033;-59
2023/03/01 11:25:37;;;;;;;7.60;3.88;;;21.30;29.50;;;;;;5037618;28;20033;-58
2023/03/01 11:28:05;;;;;;;5.38;3.22;;;19.70;31.60;;;;;;5034400;28;20825;-60
2023/03/01 11:30:38;;;;;;;7.30;3.55;;;17.70;34.50;;;;;;5039175;28;20047;-59
2023/03/01 11:33:15;;;;;;;6.18;3.22;;;15.90;35.70;;;;;;5040604;28;20115;-60
2023/03/01 11:35:57;;;;;;;7.03;3.95;;;14.50;38.40;;;;;;5048258;28;20035;-59
2023/03/01 11:38:26;;;;;;;4.68;3.13;;;13.40;42.70;;;;;;5040596;28;20384;-59
2023/03/01 11:41:02;;;;;;;5.70;4.05;;;12.60;42.70;;;;;;5035153;28;20040;-59
2023/03/01 11:43:36;;;;;;;6.88;4.10;;;12.10;45.90;;;;;;5031543;28;20044;-57
2023/03/01 11:46:32;;;;;;;7.85;4.68;;;11.60;47.70;;;;;;5041884;28;20443;-59
2023/03/01 11:49:17;;;;;;;5.05;3.28;;;11.30;47.80;;;;;;5040108;28;20033;-59
2023/03/01 11:52:13;;;;;;;19.50;7.65;;;11.00;46.10;;;;;;5037223;28;20141;-59
2023/03/01 11:55:00;;;;;;;13.90;6.25;;;10.80;47.30;;;;;;5038750;28;20037;-59
2023/03/01 11:57:59;;;;;;;6.85;3.72;;;10.80;49.80;;;;;;5044146;28;20074;-60
2023/03/01 12:00:37;;;;;;;5.57;3.00;;;10.80;50.00;;;;;;5036738;28;20124;-59
2023/03/01 12:03:24;;;;;;;9.82;3.85;;;10.90;48.90;;;;;;5037274;28;20056;-62
2023/03/01 12:06:23;;;;;;;5.03;3.20;;;10.80;48.30;;;;;;5039967;28;20117;-61
2023/03/01 12:09:19;;;;;;;6.40;3.45;;;10.70;46.40;;;;;;5036502;28;20033;-59
2023/03/01 12:12:03;;;;;;;4.93;3.10;;;10.60;47.70;;;;;;5034492;28;20099;-63
2023/03/01 12:14:49;;;;;;;5.82;2.85;;;10.50;47.30;;;;;;5037833;28;20739;-66
2023/03/01 12:17:14;;;;;;;7.28;3.47;;;10.40;46.00;;;;;;5039426;28;20132;-59
2023/03/01 12:19:46;;;;;;;5.88;3.13;;;10.30;46.40;;;;;;5040781;28;20454;-59
2023/03/01 12:22:20;;;;;;;5.53;2.70;;;10.20;45.70;;;;;;5044137;28;20035;-59
2023/03/01 12:25:20;;;;;;;6.18;2.70;;;10.10;46.20;;;;;;5038864;28;20052;-62
2023/03/01 12:28:08;;;;;;;6.93;2.97;;;10.00;46.50;;;;;;5040224;28;20033;-59
2023/03/01 12:31:13;;;;;;;8.07;2.88;;;9.90;48.20;;;;;;5041456;28;20826;-58
2023/03/01 12:34:03;;;;;;;6.47;3.20;;;9.90;47.70;;;;;;5040476;28;20759;-61
2023/03/01 12:36:32;;;;;;;6.00;3.03;;;10.00;46.60;;;;;;5039273;28;20040;-59
2023/03/01 12:39:17;;;;;;;5.75;2.72;;;10.10;45.60;;;;;;5039175;28;20030;-62
2023/03/01 12:41:47;;;;;;;4.75;2.80;;;10.00;48.30;;;;;;5039179;28;20700;-62
2023/03/01 12:44:34;;;;;;;6.88;3.13;;;10.00;46.00;;;;;;5042701;28;20064;-61
2023/03/01 12:47:15;;;;;;;6.35;2.78;;;10.00;47.20;;;;;;5040962;28;20033;-61
2023/03/01 12:49:46;;;;;;;4.57;2.85;;;10.00;47.50;;;;;;5040410;28;20037;-61
2023/03/01 12:52:23;;;;;;;3.45;2.65;;;10.00;46.10;;;;;;5038497;28;20045;-61
2023/03/01 12:54:51;;;;;;;4.00;2.15;;;10.00;46.70;;;;;;5034495;28;20037;-62
2023/03/01 12:57:38;;;;;;;4.22;2.50;;;9.90;45.10;;;;;;5046831;28;20572;-61
2023/03/01 13:00:31;;;;;;;6.55;2.58;;;9.90;46.50;;;;;;5031145;28;20481;-61